sensor_id;sensor_type;location;lat;lon;timestamp;temperature;humidity
40023;DHT22;25713;-35.352;149.036;2023-01-09T00:00:24;19.50;91.00
40023;DHT22;25713;-35.352;149.036;2023-01-09T00:02:54;19.60;91.00
40023;DHT22;25713;-35.352;149.036;2023-01-09T00:05:23;19.60;88.50
40023;DHT22;25713;-35.352;149.036;2023-01-09T00:07:53;19.70;90.20
40023;DHT22;25713;-35.352;149.036;2023-01-09T00:10:24;19.70;90.00
40023;DHT22;25713;-35.352;149.036;2023-01-09T00:12:54;19.60;86.60
40023;DHT22;25713;-35.352;149.036;2023-01-09T00:15:23;19.70;88.30
40023;DHT22;25713;-35.352;149.036;2023-01-09T00:17:52;19.80;87.40
40023;DHT22;25713;-35.352;149.036;2023-01-09T00:20:22;19.80;86.00
40023;DHT22;25713;-35.352;149.036;2023-01-09T00:22:51;19.70;88.80
40023;DHT22;25713;-35.352;149.036;2023-01-09T00:25:21;19.80;87.90
40023;DHT22;25713;-35.352;149.036;2023-01-09T00:27:52;19.90;83.10
40023;DHT22;25713;-35.352;149.036;2023-01-09T00:30:21;19.90;86.40
40023;DHT22;25713;-35.352;149.036;2023-01-09T00:32:51;19.90;86.00
40023;DHT22;25713;-35.352;149.036;2023-01-09T00:35:21;20.00;83.60
40023;DHT22;25713;-35.352;149.036;2023-01-09T00:37:51;20.10;80.40
40023;DHT22;25713;-35.352;149.036;2023-01-09T00:40:21;20.10;81.50
40023;DHT22;25713;-35.352;149.036;2023-01-09T00:42:53;20.10;86.40
40023;DHT22;25713;-35.352;149.036;2023-01-09T00:45:25;20.00;86.60
40023;DHT22;25713;-35.352;149.036;2023-01-09T00:47:59;20.10;85.30
40023;DHT22;25713;-35.352;149.036;2023-01-09T00:50:31;20.10;81.90
40023;DHT22;25713;-35.352;149.036;2023-01-09T00:53:02;20.10;84.30
40023;DHT22;25713;-35.352;149.036;2023-01-09T00:55:34;20.10;82.20
40023;DHT22;25713;-35.352;149.036;2023-01-09T00:58:07;20.10;78.10
40023;DHT22;25713;-35.352;149.036;2023-01-09T01:00:36;20.40;72.60
40023;DHT22;25713;-35.352;149.036;2023-01-09T01:03:06;20.40;72.60
40023;DHT22;25713;-35.352;149.036;2023-01-09T01:05:35;20.50;74.50
40023;DHT22;25713;-35.352;149.036;2023-01-09T01:08:10;20.50;81.00
40023;DHT22;25713;-35.352;149.036;2023-01-09T01:10:40;20.40;79.30
40023;DHT22;25713;-35.352;149.036;2023-01-09T01:13:12;20.50;78.30
40023;DHT22;25713;-35.352;149.036;2023-01-09T01:15:42;20.60;73.60
40023;DHT22;25713;-35.352;149.036;2023-01-09T01:18:12;20.70;73.50
40023;DHT22;25713;-35.352;149.036;2023-01-09T01:20:41;20.80;76.60
40023;DHT22;25713;-35.352;149.036;2023-01-09T01:23:12;20.70;77.80
40023;DHT22;25713;-35.352;149.036;2023-01-09T01:25:41;20.60;80.30
40023;DHT22;25713;-35.352;149.036;2023-01-09T01:28:13;20.50;80.50
40023;DHT22;25713;-35.352;149.036;2023-01-09T01:30:43;20.50;80.40
40023;DHT22;25713;-35.352;149.036;2023-01-09T01:33:12;20.60;76.50
40023;DHT22;25713;-35.352;149.036;2023-01-09T01:35:42;20.70;75.00
40023;DHT22;25713;-35.352;149.036;2023-01-09T01:38:11;20.80;76.70
40023;DHT22;25713;-35.352;149.036;2023-01-09T01:40:41;20.80;75.80
40023;DHT22;25713;-35.352;149.036;2023-01-09T01:43:14;20.90;73.40
40023;DHT22;25713;-35.352;149.036;2023-01-09T01:45:43;21.10;70.40
40023;DHT22;25713;-35.352;149.036;2023-01-09T01:48:16;21.00;72.80
40023;DHT22;25713;-35.352;149.036;2023-01-09T01:50:47;21.10;73.20
40023;DHT22;25713;-35.352;149.036;2023-01-09T01:53:22;21.00;76.60
40023;DHT22;25713;-35.352;149.036;2023-01-09T01:56:00;20.90;79.90
40023;DHT22;25713;-35.352;149.036;2023-01-09T01:58:35;20.90;73.30
40023;DHT22;25713;-35.352;149.036;2023-01-09T02:01:06;21.10;76.60
40023;DHT22;25713;-35.352;149.036;2023-01-09T02:03:36;21.00;77.80
40023;DHT22;25713;-35.352;149.036;2023-01-09T02:06:07;20.90;74.90
40023;DHT22;25713;-35.352;149.036;2023-01-09T02:08:37;20.90;75.60
40023;DHT22;25713;-35.352;149.036;2023-01-09T02:11:07;20.90;76.90
40023;DHT22;25713;-35.352;149.036;2023-01-09T02:13:39;21.30;70.10
40023;DHT22;25713;-35.352;149.036;2023-01-09T02:16:27;21.70;65.70
40023;DHT22;25713;-35.352;149.036;2023-01-09T02:19:09;21.90;69.00
40023;DHT22;25713;-35.352;149.036;2023-01-09T02:21:53;22.00;69.60
40023;DHT22;25713;-35.352;149.036;2023-01-09T02:25:00;21.90;70.40
40023;DHT22;25713;-35.352;149.036;2023-01-09T02:27:53;21.70;71.20
40023;DHT22;25713;-35.352;149.036;2023-01-09T02:30:40;22.20;66.80
40023;DHT22;25713;-35.352;149.036;2023-01-09T02:33:43;22.30;63.70
40023;DHT22;25713;-35.352;149.036;2023-01-09T02:36:21;22.10;71.10
40023;DHT22;25713;-35.352;149.036;2023-01-09T02:39:05;21.90;67.30
40023;DHT22;25713;-35.352;149.036;2023-01-09T02:41:39;22.50;61.10
40023;DHT22;25713;-35.352;149.036;2023-01-09T02:44:19;22.40;62.40
40023;DHT22;25713;-35.352;149.036;2023-01-09T02:47:03;22.30;65.00
40023;DHT22;25713;-35.352;149.036;2023-01-09T02:49:34;21.90;72.70
40023;DHT22;25713;-35.352;149.036;2023-01-09T02:52:20;21.80;71.00
40023;DHT22;25713;-35.352;149.036;2023-01-09T02:54:59;22.50;64.80
40023;DHT22;25713;-35.352;149.036;2023-01-09T02:57:43;22.40;69.60
40023;DHT22;25713;-35.352;149.036;2023-01-09T03:00:21;22.70;62.90
40023;DHT22;25713;-35.352;149.036;2023-01-09T03:02:57;22.80;62.20
40023;DHT22;25713;-35.352;149.036;2023-01-09T03:05:31;22.50;68.40
40023;DHT22;25713;-35.352;149.036;2023-01-09T03:08:06;22.20;67.60
40023;DHT22;25713;-35.352;149.036;2023-01-09T03:10:38;22.30;65.40
40023;DHT22;25713;-35.352;149.036;2023-01-09T03:13:11;22.30;59.40
40023;DHT22;25713;-35.352;149.036;2023-01-09T03:15:43;22.80;58.20
40023;DHT22;25713;-35.352;149.036;2023-01-09T03:18:19;23.00;58.40
40023;DHT22;25713;-35.352;149.036;2023-01-09T03:20:50;22.70;64.10
40023;DHT22;25713;-35.352;149.036;2023-01-09T03:23:21;22.50;67.40
40023;DHT22;25713;-35.352;149.036;2023-01-09T03:25:50;22.30;63.50
40023;DHT22;25713;-35.352;149.036;2023-01-09T03:28:25;22.30;63.20
40023;DHT22;25713;-35.352;149.036;2023-01-09T03:30:56;22.30;64.50
40023;DHT22;25713;-35.352;149.036;2023-01-09T03:33:27;22.40;61.50
40023;DHT22;25713;-35.352;149.036;2023-01-09T03:35:57;22.50;63.30
40023;DHT22;25713;-35.352;149.036;2023-01-09T03:38:26;22.50;58.70
40023;DHT22;25713;-35.352;149.036;2023-01-09T03:40:56;22.70;60.70
40023;DHT22;25713;-35.352;149.036;2023-01-09T03:43:25;22.60;64.70
40023;DHT22;25713;-35.352;149.036;2023-01-09T03:45:55;22.70;58.50
40023;DHT22;25713;-35.352;149.036;2023-01-09T03:48:26;23.20;51.10
40023;DHT22;25713;-35.352;149.036;2023-01-09T03:50:56;23.10;60.90
40023;DHT22;25713;-35.352;149.036;2023-01-09T03:53:26;23.00;59.50
40023;DHT22;25713;-35.352;149.036;2023-01-09T03:55:57;23.10;59.90
40023;DHT22;25713;-35.352;149.036;2023-01-09T03:58:26;22.90;62.50
40023;DHT22;25713;-35.352;149.036;2023-01-09T04:00:59;22.70;62.30
40023;DHT22;25713;-35.352;149.036;2023-01-09T04:03:32;22.60;58.40
40023;DHT22;25713;-35.352;149.036;2023-01-09T04:06:02;22.70;59.70
40023;DHT22;25713;-35.352;149.036;2023-01-09T04:08:32;22.70;61.40
40023;DHT22;25713;-35.352;149.036;2023-01-09T04:11:02;22.80;55.60
40023;DHT22;25713;-35.352;149.036;2023-01-09T04:13:31;22.90;57.50
40023;DHT22;25713;-35.352;149.036;2023-01-09T04:16:00;23.10;56.20
40023;DHT22;25713;-35.352;149.036;2023-01-09T04:18:32;23.20;57.80
40023;DHT22;25713;-35.352;149.036;2023-01-09T04:21:01;23.40;55.70
40023;DHT22;25713;-35.352;149.036;2023-01-09T04:23:31;23.60;54.90
40023;DHT22;25713;-35.352;149.036;2023-01-09T04:26:00;23.50;57.70
40023;DHT22;25713;-35.352;149.036;2023-01-09T04:28:29;23.30;60.60
40023;DHT22;25713;-35.352;149.036;2023-01-09T04:30:59;23.40;55.10
40023;DHT22;25713;-35.352;149.036;2023-01-09T04:33:30;23.30;56.70
40023;DHT22;25713;-35.352;149.036;2023-01-09T04:36:00;23.20;57.60
40023;DHT22;25713;-35.352;149.036;2023-01-09T04:38:29;23.50;56.70
40023;DHT22;25713;-35.352;149.036;2023-01-09T04:40:58;23.20;58.00
40023;DHT22;25713;-35.352;149.036;2023-01-09T04:43:28;23.30;57.90
40023;DHT22;25713;-35.352;149.036;2023-01-09T04:45:57;23.00;58.60
40023;DHT22;25713;-35.352;149.036;2023-01-09T04:48:27;23.20;55.10
40023;DHT22;25713;-35.352;149.036;2023-01-09T04:50:58;23.20;55.60
40023;DHT22;25713;-35.352;149.036;2023-01-09T04:53:27;23.10;57.50
40023;DHT22;25713;-35.352;149.036;2023-01-09T04:55:57;23.10;55.40
40023;DHT22;25713;-35.352;149.036;2023-01-09T04:58:26;23.10;54.40
40023;DHT22;25713;-35.352;149.036;2023-01-09T05:00:55;23.50;52.40
40023;DHT22;25713;-35.352;149.036;2023-01-09T05:03:25;23.80;52.80
40023;DHT22;25713;-35.352;149.036;2023-01-09T05:05:56;24.00;51.60
40023;DHT22;25713;-35.352;149.036;2023-01-09T05:08:26;24.20;47.40
40023;DHT22;25713;-35.352;149.036;2023-01-09T05:10:55;24.10;49.30
40023;DHT22;25713;-35.352;149.036;2023-01-09T05:13:25;23.90;55.60
40023;DHT22;25713;-35.352;149.036;2023-01-09T05:15:54;23.90;56.40
40023;DHT22;25713;-35.352;149.036;2023-01-09T05:18:24;23.60;55.10
40023;DHT22;25713;-35.352;149.036;2023-01-09T05:20:53;24.00;49.30
40023;DHT22;25713;-35.352;149.036;2023-01-09T05:23:25;23.90;52.90
40023;DHT22;25713;-35.352;149.036;2023-01-09T05:25:54;23.60;57.90
40023;DHT22;25713;-35.352;149.036;2023-01-09T05:28:24;23.50;54.70
40023;DHT22;25713;-35.352;149.036;2023-01-09T05:30:53;23.60;54.90
40023;DHT22;25713;-35.352;149.036;2023-01-09T05:33:23;23.70;51.70
40023;DHT22;25713;-35.352;149.036;2023-01-09T05:35:52;23.60;55.60
40023;DHT22;25713;-35.352;149.036;2023-01-09T05:38:24;23.60;52.80
40023;DHT22;25713;-35.352;149.036;2023-01-09T05:40:53;23.80;50.40
40023;DHT22;25713;-35.352;149.036;2023-01-09T05:43:23;23.80;52.50
40023;DHT22;25713;-35.352;149.036;2023-01-09T05:45:52;23.80;52.80
40023;DHT22;25713;-35.352;149.036;2023-01-09T05:48:22;23.70;53.70
40023;DHT22;25713;-35.352;149.036;2023-01-09T05:50:51;23.90;50.10
40023;DHT22;25713;-35.352;149.036;2023-01-09T05:53:22;24.00;52.80
40023;DHT22;25713;-35.352;149.036;2023-01-09T05:55:52;24.00;53.30
40023;DHT22;25713;-35.352;149.036;2023-01-09T05:58:21;23.90;56.20
40023;DHT22;25713;-35.352;149.036;2023-01-09T06:00:52;23.60;57.50
40023;DHT22;25713;-35.352;149.036;2023-01-09T06:03:21;23.70;52.80
40023;DHT22;25713;-35.352;149.036;2023-01-09T06:05:51;23.70;52.10
40023;DHT22;25713;-35.352;149.036;2023-01-09T06:08:20;23.70;51.60
40023;DHT22;25713;-35.352;149.036;2023-01-09T06:10:52;23.70;53.50
40023;DHT22;25713;-35.352;149.036;2023-01-09T06:13:21;23.70;52.60
40023;DHT22;25713;-35.352;149.036;2023-01-09T06:15:50;23.70;53.40
40023;DHT22;25713;-35.352;149.036;2023-01-09T06:18:20;23.70;54.00
40023;DHT22;25713;-35.352;149.036;2023-01-09T06:20:49;23.70;53.80
40023;DHT22;25713;-35.352;149.036;2023-01-09T06:23:19;23.80;53.60
40023;DHT22;25713;-35.352;149.036;2023-01-09T06:25:50;23.80;54.40
40023;DHT22;25713;-35.352;149.036;2023-01-09T06:28:19;23.80;55.30
40023;DHT22;25713;-35.352;149.036;2023-01-09T06:30:51;23.50;57.00
40023;DHT22;25713;-35.352;149.036;2023-01-09T06:33:20;23.70;53.50
40023;DHT22;25713;-35.352;149.036;2023-01-09T06:35:50;23.60;52.40
40023;DHT22;25713;-35.352;149.036;2023-01-09T06:38:19;23.60;52.60
40023;DHT22;25713;-35.352;149.036;2023-01-09T06:40:50;23.80;50.70
40023;DHT22;25713;-35.352;149.036;2023-01-09T06:43:20;23.80;53.00
40023;DHT22;25713;-35.352;149.036;2023-01-09T06:45:49;23.60;54.40
40023;DHT22;25713;-35.352;149.036;2023-01-09T06:48:19;23.50;52.90
40023;DHT22;25713;-35.352;149.036;2023-01-09T06:50:48;23.50;54.80
40023;DHT22;25713;-35.352;149.036;2023-01-09T06:53:18;23.70;54.30
40023;DHT22;25713;-35.352;149.036;2023-01-09T06:55:47;23.80;54.60
40023;DHT22;25713;-35.352;149.036;2023-01-09T06:58:19;23.80;55.50
40023;DHT22;25713;-35.352;149.036;2023-01-09T07:00:48;23.70;55.00
40023;DHT22;25713;-35.352;149.036;2023-01-09T07:03:17;23.70;54.60
40023;DHT22;25713;-35.352;149.036;2023-01-09T07:05:47;23.70;54.70
40023;DHT22;25713;-35.352;149.036;2023-01-09T07:08:17;23.60;55.20
40023;DHT22;25713;-35.352;149.036;2023-01-09T07:10:46;23.50;55.60
40023;DHT22;25713;-35.352;149.036;2023-01-09T07:13:18;23.50;53.80
40023;DHT22;25713;-35.352;149.036;2023-01-09T07:15:47;23.50;56.50
40023;DHT22;25713;-35.352;149.036;2023-01-09T07:18:17;23.50;55.70
40023;DHT22;25713;-35.352;149.036;2023-01-09T07:20:46;23.50;55.10
40023;DHT22;25713;-35.352;149.036;2023-01-09T07:23:15;23.50;56.10
40023;DHT22;25713;-35.352;149.036;2023-01-09T07:25:45;23.40;58.10
40023;DHT22;25713;-35.352;149.036;2023-01-09T07:28:14;23.30;56.10
40023;DHT22;25713;-35.352;149.036;2023-01-09T07:30:46;23.60;52.00
40023;DHT22;25713;-35.352;149.036;2023-01-09T07:33:15;23.60;53.60
40023;DHT22;25713;-35.352;149.036;2023-01-09T07:35:44;23.50;55.60
40023;DHT22;25713;-35.352;149.036;2023-01-09T07:38:14;23.60;54.10
40023;DHT22;25713;-35.352;149.036;2023-01-09T07:40:43;23.60;52.90
40023;DHT22;25713;-35.352;149.036;2023-01-09T07:43:13;23.60;51.60
40023;DHT22;25713;-35.352;149.036;2023-01-09T07:45:44;23.80;54.30
40023;DHT22;25713;-35.352;149.036;2023-01-09T07:48:13;23.70;51.90
40023;DHT22;25713;-35.352;149.036;2023-01-09T07:50:43;23.60;55.70
40023;DHT22;25713;-35.352;149.036;2023-01-09T07:53:12;23.50;54.10
40023;DHT22;25713;-35.352;149.036;2023-01-09T07:55:43;23.50;52.50
40023;DHT22;25713;-35.352;149.036;2023-01-09T07:58:14;23.60;50.00
40023;DHT22;25713;-35.352;149.036;2023-01-09T08:00:45;23.60;50.50
40023;DHT22;25713;-35.352;149.036;2023-01-09T08:03:20;23.70;52.20
40023;DHT22;25713;-35.352;149.036;2023-01-09T08:05:53;23.60;53.60
40023;DHT22;25713;-35.352;149.036;2023-01-09T08:08:29;23.50;52.50
40023;DHT22;25713;-35.352;149.036;2023-01-09T08:11:15;23.50;52.20
40023;DHT22;25713;-35.352;149.036;2023-01-09T08:13:49;23.50;53.10
40023;DHT22;25713;-35.352;149.036;2023-01-09T08:16:28;23.50;53.00
40023;DHT22;25713;-35.352;149.036;2023-01-09T08:19:03;23.60;51.50
40023;DHT22;25713;-35.352;149.036;2023-01-09T08:21:45;23.50;52.20
40023;DHT22;25713;-35.352;149.036;2023-01-09T08:24:19;23.50;53.20
40023;DHT22;25713;-35.352;149.036;2023-01-09T08:26:53;23.40;52.80
40023;DHT22;25713;-35.352;149.036;2023-01-09T08:29:23;23.40;53.40
40023;DHT22;25713;-35.352;149.036;2023-01-09T08:31:55;23.30;54.90
40023;DHT22;25713;-35.352;149.036;2023-01-09T08:34:25;23.30;53.10
40023;DHT22;25713;-35.352;149.036;2023-01-09T08:36:54;23.20;56.30
40023;DHT22;25713;-35.352;149.036;2023-01-09T08:39:23;23.20;54.70
40023;DHT22;25713;-35.352;149.036;2023-01-09T08:41:53;23.20;56.90
40023;DHT22;25713;-35.352;149.036;2023-01-09T08:44:22;23.20;55.40
40023;DHT22;25713;-35.352;149.036;2023-01-09T08:46:54;23.20;58.70
40023;DHT22;25713;-35.352;149.036;2023-01-09T08:49:23;23.10;55.10
40023;DHT22;25713;-35.352;149.036;2023-01-09T08:51:53;23.20;52.80
40023;DHT22;25713;-35.352;149.036;2023-01-09T08:54:22;23.10;56.40
40023;DHT22;25713;-35.352;149.036;2023-01-09T08:56:51;23.00;55.10
40023;DHT22;25713;-35.352;149.036;2023-01-09T08:59:21;23.10;56.40
40023;DHT22;25713;-35.352;149.036;2023-01-09T09:01:50;23.20;60.20
40023;DHT22;25713;-35.352;149.036;2023-01-09T09:04:22;23.00;62.80
40023;DHT22;25713;-35.352;149.036;2023-01-09T09:06:51;23.00;64.00
40023;DHT22;25713;-35.352;149.036;2023-01-09T09:09:21;23.00;65.20
40023;DHT22;25713;-35.352;149.036;2023-01-09T09:11:50;22.90;66.10
40023;DHT22;25713;-35.352;149.036;2023-01-09T09:14:20;22.90;66.80
40023;DHT22;25713;-35.352;149.036;2023-01-09T09:16:50;22.90;67.30
40023;DHT22;25713;-35.352;149.036;2023-01-09T09:19:22;22.90;67.70
40023;DHT22;25713;-35.352;149.036;2023-01-09T09:21:51;22.90;67.80
40023;DHT22;25713;-35.352;149.036;2023-01-09T09:24:21;22.80;68.20
40023;DHT22;25713;-35.352;149.036;2023-01-09T09:26:50;22.80;68.70
40023;DHT22;25713;-35.352;149.036;2023-01-09T09:29:19;22.80;69.00
40023;DHT22;25713;-35.352;149.036;2023-01-09T09:31:49;22.70;69.30
40023;DHT22;25713;-35.352;149.036;2023-01-09T09:34:20;22.60;69.50
40023;DHT22;25713;-35.352;149.036;2023-01-09T09:36:50;22.70;69.60
40023;DHT22;25713;-35.352;149.036;2023-01-09T09:39:19;22.60;69.40
40023;DHT22;25713;-35.352;149.036;2023-01-09T09:42:07;22.60;69.70
40023;DHT22;25713;-35.352;149.036;2023-01-09T09:44:50;22.60;69.50
40023;DHT22;25713;-35.352;149.036;2023-01-09T09:47:38;22.50;69.40
40023;DHT22;25713;-35.352;149.036;2023-01-09T09:50:26;22.60;69.10
40023;DHT22;25713;-35.352;149.036;2023-01-09T09:53:00;22.50;69.80
40023;DHT22;25713;-35.352;149.036;2023-01-09T09:55:33;22.50;70.00
40023;DHT22;25713;-35.352;149.036;2023-01-09T09:58:06;22.50;70.70
40023;DHT22;25713;-35.352;149.036;2023-01-09T10:00:39;22.40;70.80
40023;DHT22;25713;-35.352;149.036;2023-01-09T10:03:12;22.40;70.80
40023;DHT22;25713;-35.352;149.036;2023-01-09T10:05:49;22.40;70.90
40023;DHT22;25713;-35.352;149.036;2023-01-09T10:08:31;22.40;71.90
40023;DHT22;25713;-35.352;149.036;2023-01-09T10:11:04;22.30;72.20
40023;DHT22;25713;-35.352;149.036;2023-01-09T10:13:38;22.30;73.20
40023;DHT22;25713;-35.352;149.036;2023-01-09T10:16:14;22.30;72.30
40023;DHT22;25713;-35.352;149.036;2023-01-09T10:18:54;22.30;73.20
40023;DHT22;25713;-35.352;149.036;2023-01-09T10:21:32;22.20;72.80
40023;DHT22;25713;-35.352;149.036;2023-01-09T10:24:21;22.20;72.70
40023;DHT22;25713;-35.352;149.036;2023-01-09T10:26:53;22.20;72.70
40023;DHT22;25713;-35.352;149.036;2023-01-09T10:29:38;22.20;72.10
40023;DHT22;25713;-35.352;149.036;2023-01-09T10:32:31;22.20;73.40
40023;DHT22;25713;-35.352;149.036;2023-01-09T10:35:22;22.10;73.40
40023;DHT22;25713;-35.352;149.036;2023-01-09T10:37:56;22.10;73.40
40023;DHT22;25713;-35.352;149.036;2023-01-09T10:40:30;22.10;74.00
40023;DHT22;25713;-35.352;149.036;2023-01-09T10:43:05;22.00;74.60
40023;DHT22;25713;-35.352;149.036;2023-01-09T10:45:41;22.00;73.60
40023;DHT22;25713;-35.352;149.036;2023-01-09T10:48:18;22.00;74.20
40023;DHT22;25713;-35.352;149.036;2023-01-09T10:50:49;21.90;74.30
40023;DHT22;25713;-35.352;149.036;2023-01-09T10:53:24;21.90;75.10
40023;DHT22;25713;-35.352;149.036;2023-01-09T10:55:57;21.90;73.50
40023;DHT22;25713;-35.352;149.036;2023-01-09T10:58:29;21.90;72.10
40023;DHT22;25713;-35.352;149.036;2023-01-09T11:00:58;22.00;73.70
40023;DHT22;25713;-35.352;149.036;2023-01-09T11:03:29;21.90;73.40
40023;DHT22;25713;-35.352;149.036;2023-01-09T11:05:59;21.90;73.60
40023;DHT22;25713;-35.352;149.036;2023-01-09T11:08:35;21.90;72.90
40023;DHT22;25713;-35.352;149.036;2023-01-09T11:11:05;21.80;73.60
40023;DHT22;25713;-35.352;149.036;2023-01-09T11:13:35;21.80;73.50
40023;DHT22;25713;-35.352;149.036;2023-01-09T11:16:19;21.80;72.70
40023;DHT22;25713;-35.352;149.036;2023-01-09T11:18:52;21.70;73.20
40023;DHT22;25713;-35.352;149.036;2023-01-09T11:21:33;21.70;73.10
40023;DHT22;25713;-35.352;149.036;2023-01-09T11:24:26;21.70;73.20
40023;DHT22;25713;-35.352;149.036;2023-01-09T11:30:19;21.70;74.40
40023;DHT22;25713;-35.352;149.036;2023-01-09T11:32:49;21.70;73.90
40023;DHT22;25713;-35.352;149.036;2023-01-09T11:35:21;21.70;73.80
40023;DHT22;25713;-35.352;149.036;2023-01-09T11:38:06;21.70;75.00
40023;DHT22;25713;-35.352;149.036;2023-01-09T11:40:48;21.70;75.20
40023;DHT22;25713;-35.352;149.036;2023-01-09T11:43:18;21.60;73.90
40023;DHT22;25713;-35.352;149.036;2023-01-09T11:45:51;21.60;73.10
40023;DHT22;25713;-35.352;149.036;2023-01-09T11:51:22;21.60;74.20
40023;DHT22;25713;-35.352;149.036;2023-01-09T11:54:10;21.60;72.50
40023;DHT22;25713;-35.352;149.036;2023-01-09T11:56:43;21.60;75.30
40023;DHT22;25713;-35.352;149.036;2023-01-09T11:59:14;21.50;75.70
40023;DHT22;25713;-35.352;149.036;2023-01-09T12:02:00;21.50;74.30
40023;DHT22;25713;-35.352;149.036;2023-01-09T12:04:34;21.50;74.60
40023;DHT22;25713;-35.352;149.036;2023-01-09T12:10:26;21.50;74.40
40023;DHT22;25713;-35.352;149.036;2023-01-09T12:13:02;21.40;74.60
40023;DHT22;25713;-35.352;149.036;2023-01-09T12:15:40;21.40;74.10
40023;DHT22;25713;-35.352;149.036;2023-01-09T12:18:28;21.40;73.80
40023;DHT22;25713;-35.352;149.036;2023-01-09T12:21:25;21.50;74.40
40023;DHT22;25713;-35.352;149.036;2023-01-09T12:27:05;21.40;76.20
40023;DHT22;25713;-35.352;149.036;2023-01-09T12:29:55;21.40;76.50
40023;DHT22;25713;-35.352;149.036;2023-01-09T12:32:42;21.40;77.30
40023;DHT22;25713;-35.352;149.036;2023-01-09T12:35:23;21.30;75.70
40023;DHT22;25713;-35.352;149.036;2023-01-09T12:38:12;21.40;76.20
40023;DHT22;25713;-35.352;149.036;2023-01-09T12:41:05;21.30;77.90
40023;DHT22;25713;-35.352;149.036;2023-01-09T12:43:39;21.30;79.00
40023;DHT22;25713;-35.352;149.036;2023-01-09T12:46:17;21.30;79.00
40023;DHT22;25713;-35.352;149.036;2023-01-09T12:49:10;21.30;78.90
40023;DHT22;25713;-35.352;149.036;2023-01-09T12:51:45;21.20;79.50
40023;DHT22;25713;-35.352;149.036;2023-01-09T12:54:23;21.20;79.60
40023;DHT22;25713;-35.352;149.036;2023-01-09T12:56:56;21.20;79.90
40023;DHT22;25713;-35.352;149.036;2023-01-09T12:59:32;21.30;79.80
40023;DHT22;25713;-35.352;149.036;2023-01-09T13:02:22;21.20;79.90
40023;DHT22;25713;-35.352;149.036;2023-01-09T13:04:57;21.20;80.10
40023;DHT22;25713;-35.352;149.036;2023-01-09T13:07:31;21.20;80.00
40023;DHT22;25713;-35.352;149.036;2023-01-09T13:10:05;21.10;79.90
40023;DHT22;25713;-35.352;149.036;2023-01-09T13:12:38;21.10;80.30
40023;DHT22;25713;-35.352;149.036;2023-01-09T13:15:23;21.10;80.70
40023;DHT22;25713;-35.352;149.036;2023-01-09T13:18:00;21.10;81.00
40023;DHT22;25713;-35.352;149.036;2023-01-09T13:20:35;21.10;78.60
40023;DHT22;25713;-35.352;149.036;2023-01-09T13:23:08;21.10;80.10
40023;DHT22;25713;-35.352;149.036;2023-01-09T13:25:41;21.10;77.10
40023;DHT22;25713;-35.352;149.036;2023-01-09T13:28:21;21.00;76.20
40023;DHT22;25713;-35.352;149.036;2023-01-09T13:31:15;21.00;78.00
40023;DHT22;25713;-35.352;149.036;2023-01-09T13:33:50;21.00;78.90
40023;DHT22;25713;-35.352;149.036;2023-01-09T13:36:25;21.00;79.70
40023;DHT22;25713;-35.352;149.036;2023-01-09T13:38:56;21.00;81.00
40023;DHT22;25713;-35.352;149.036;2023-01-09T13:41:27;21.00;81.10
40023;DHT22;25713;-35.352;149.036;2023-01-09T13:43:59;21.00;81.00
40023;DHT22;25713;-35.352;149.036;2023-01-09T13:46:37;20.90;81.80
40023;DHT22;25713;-35.352;149.036;2023-01-09T13:49:30;20.90;81.50
40023;DHT22;25713;-35.352;149.036;2023-01-09T13:52:02;20.90;81.50
40023;DHT22;25713;-35.352;149.036;2023-01-09T13:55:19;20.90;81.30
40023;DHT22;25713;-35.352;149.036;2023-01-09T13:58:17;20.90;81.40
40023;DHT22;25713;-35.352;149.036;2023-01-09T14:00:55;20.90;82.20
40023;DHT22;25713;-35.352;149.036;2023-01-09T14:03:30;20.90;81.90
40023;DHT22;25713;-35.352;149.036;2023-01-09T14:06:10;20.90;82.10
40023;DHT22;25713;-35.352;149.036;2023-01-09T14:08:40;20.90;81.90
40023;DHT22;25713;-35.352;149.036;2023-01-09T14:11:18;20.80;81.80
40023;DHT22;25713;-35.352;149.036;2023-01-09T14:13:58;20.80;81.80
40023;DHT22;25713;-35.352;149.036;2023-01-09T14:16:30;20.80;81.80
40023;DHT22;25713;-35.352;149.036;2023-01-09T14:19:04;20.80;81.80
40023;DHT22;25713;-35.352;149.036;2023-01-09T14:21:48;20.80;81.70
40023;DHT22;25713;-35.352;149.036;2023-01-09T14:24:26;20.80;81.80
40023;DHT22;25713;-35.352;149.036;2023-01-09T14:26:58;20.70;81.90
40023;DHT22;25713;-35.352;149.036;2023-01-09T14:29:42;20.80;82.40
40023;DHT22;25713;-35.352;149.036;2023-01-09T14:32:36;20.70;82.60
40023;DHT22;25713;-35.352;149.036;2023-01-09T14:35:15;20.70;82.40
40023;DHT22;25713;-35.352;149.036;2023-01-09T14:38:00;20.70;82.60
40023;DHT22;25713;-35.352;149.036;2023-01-09T14:40:30;20.70;82.60
40023;DHT22;25713;-35.352;149.036;2023-01-09T14:43:12;20.60;82.90
40023;DHT22;25713;-35.352;149.036;2023-01-09T14:45:46;20.60;82.50
40023;DHT22;25713;-35.352;149.036;2023-01-09T14:48:16;20.60;82.20
40023;DHT22;25713;-35.352;149.036;2023-01-09T15:53:00;20.10;82.00
40023;DHT22;25713;-35.352;149.036;2023-01-09T15:55:32;20.00;82.70
40023;DHT22;25713;-35.352;149.036;2023-01-09T15:58:03;20.00;82.70
40023;DHT22;25713;-35.352;149.036;2023-01-09T16:00:38;20.00;83.00
40023;DHT22;25713;-35.352;149.036;2023-01-09T16:03:18;20.00;82.90
40023;DHT22;25713;-35.352;149.036;2023-01-09T16:05:51;20.10;82.90
40023;DHT22;25713;-35.352;149.036;2023-01-09T16:08:29;20.10;82.90
40023;DHT22;25713;-35.352;149.036;2023-01-09T16:11:02;20.10;83.00
40023;DHT22;25713;-35.352;149.036;2023-01-09T16:13:37;20.10;83.10
40023;DHT22;25713;-35.352;149.036;2023-01-09T16:16:07;20.10;83.30
40023;DHT22;25713;-35.352;149.036;2023-01-09T16:18:38;20.10;83.00
40023;DHT22;25713;-35.352;149.036;2023-01-09T16:21:34;20.10;83.50
40023;DHT22;25713;-35.352;149.036;2023-01-09T16:24:24;20.10;84.10
40023;DHT22;25713;-35.352;149.036;2023-01-09T16:29:54;20.10;84.20
40023;DHT22;25713;-35.352;149.036;2023-01-09T16:32:26;20.10;84.10
40023;DHT22;25713;-35.352;149.036;2023-01-09T16:34:57;20.10;83.90
40023;DHT22;25713;-35.352;149.036;2023-01-09T16:37:27;20.00;84.10
40023;DHT22;25713;-35.352;149.036;2023-01-09T16:40:25;20.10;84.30
40023;DHT22;25713;-35.352;149.036;2023-01-09T16:42:57;20.00;83.90
40023;DHT22;25713;-35.352;149.036;2023-01-09T16:45:27;20.00;84.10